Seward, AK

7:14 PM AKST on February 09, 2016 (GMT -0900)
Oak Street Forest Acres Seward Alaska | | Change Station
CLOSE
Current Station
Personal Weather Station
Location: Seward, AK
Elevation: 144 ft
Nearby Weather Stations

Elev 144 ft 60.14 °N, 149.44 °W | Updated 55 seconds ago

Clear
Clear
33.6 °F
Feels Like 34 °F
N
2.0
Wind Variable Wind from East

Today
High -- | Low -- °F
--% Chance of Precip.
Yesterday
High -- | Low -- °F
Precip. -- in
Pressure 29.83 in
Visibility 10.0 miles
Clouds Clear
Windchill 34 °F
Dew Point 29 °F
Humidity 82%
Rainfall 0.14 in
Snow Depth Not available.
8:52 AM 5:32 PM
Waxing Crescent, 3% visible
METAR PAWD 100353Z AUTO 01012G21KT 10SM CLR 03/M02 A2982 RMK AO2 SLP099 T00281022 TSNO
Pressure 29.83 in
Visibility 10.0 miles
Clouds Clear
Windchill 34 °F
Dew Point 29 °F
Humidity 82%
Rainfall 0.14 in
Snow Depth Not available.
8:52 AM 5:32 PM
Waxing Crescent, 3% visible
METAR PAWD 100353Z AUTO 01012G21KT 10SM CLR 03/M02 A2982 RMK AO2 SLP099 T00281022 TSNO

10-Day Weather Forecast

Almanac

Astronomy

Feb. 09, 2016 Rise Set
Actual Time
Civil Twilight
Nautical Twilight
Astronomical Twilight
Moon
Length of Visible Light
Length of Day
Tomorrow will be .
, % of the Moon is Illuminated

Today's Extremes

State Highs State Lows

Community

WunderPhotos

Upload Photos

1,891,796 photos uploaded!

WunderBlog® & News

Nearby

Air Quality

  Air Quality AQ Index Pollutant
Not available.

Snow Depth

Station Depth Elevation

Earthquake Activity

City Distance Mag. Time & Date
Minimum magnitude displayed is 2.5.

Coastal Water Temperatures

Place Temperature

Stations

Nearby Weather Stations

Station Location Temp. Windchill Dew Point Humidity Wind Precip. Elev Updated Type
                   

Watches & Warnings

There are currently no watches in effect.